createdAt,value
2017-12-21T00:01:36.873Z,66.10
2017-12-21T00:04:05.475Z,66.10
2017-12-21T00:06:34.112Z,66.50
2017-12-21T00:09:02.722Z,66.00
2017-12-21T00:11:31.523Z,66.30
2017-12-21T00:14:01.237Z,65.90
2017-12-21T00:16:30.781Z,66.10
2017-12-21T00:19:00.854Z,66.90
2017-12-21T00:21:30.377Z,66.30
2017-12-21T00:23:59.985Z,66.10
2017-12-21T00:26:28.534Z,66.70
2017-12-21T00:28:57.090Z,66.70
2017-12-21T00:31:26.639Z,66.70
2017-12-21T00:33:55.398Z,66.60
2017-12-21T00:36:25.038Z,66.40
2017-12-21T00:38:53.775Z,66.70
2017-12-21T00:41:22.244Z,66.50
2017-12-21T00:43:50.841Z,66.90
2017-12-21T00:46:19.536Z,66.80
2017-12-21T00:48:48.145Z,66.70
2017-12-21T00:51:17.535Z,66.00
2017-12-21T00:53:46.739Z,66.40
2017-12-21T00:56:15.867Z,66.80
2017-12-21T00:58:45.484Z,66.50
2017-12-21T01:01:14.193Z,66.60
2017-12-21T01:03:42.755Z,66.60
2017-12-21T01:06:11.542Z,66.70
2017-12-21T01:08:41.760Z,66.70
2017-12-21T01:11:11.776Z,66.50
2017-12-21T01:13:40.423Z,66.80
2017-12-21T01:16:09.095Z,66.50
2017-12-21T01:18:37.780Z,66.30
2017-12-21T01:21:06.295Z,66.30
2017-12-21T01:23:35.061Z,66.30
2017-12-21T01:26:03.693Z,66.20
2017-12-21T01:28:32.867Z,66.10
2017-12-21T01:31:01.569Z,66.20
2017-12-21T01:33:30.090Z,66.10
2017-12-21T01:35:58.578Z,66.10
2017-12-21T01:38:28.014Z,65.50
2017-12-21T01:40:56.782Z,66.00
2017-12-21T01:43:25.270Z,66.10
2017-12-21T01:45:54.759Z,66.20
2017-12-21T01:48:23.354Z,66.10
2017-12-21T01:50:53.198Z,66.20
2017-12-21T01:53:23.994Z,65.90
2017-12-21T01:55:53.762Z,66.10
2017-12-21T01:58:22.522Z,66.00
2017-12-21T02:00:51.151Z,65.90
2017-12-21T02:03:32.201Z,66.10
2017-12-21T02:06:00.949Z,66.20
2017-12-21T02:08:29.478Z,66.00
2017-12-21T02:11:06.031Z,65.80
2017-12-21T02:13:36.913Z,65.40
2017-12-21T02:16:05.357Z,65.40
2017-12-21T02:18:33.941Z,65.60
2017-12-21T02:21:02.986Z,65.40
2017-12-21T02:23:31.325Z,65.40
2017-12-21T02:25:59.612Z,66.10
2017-12-21T02:28:27.888Z,65.40
2017-12-21T02:30:56.203Z,65.30
2017-12-21T02:33:24.469Z,66.10
2017-12-21T02:35:52.806Z,65.30
2017-12-21T02:38:21.075Z,65.50
2017-12-21T02:40:49.609Z,65.40
2017-12-21T02:43:17.890Z,65.30
2017-12-21T02:45:46.171Z,65.30
2017-12-21T02:48:14.518Z,65.40
2017-12-21T02:50:42.775Z,65.40
2017-12-21T02:53:11.067Z,65.40
2017-12-21T02:55:39.338Z,65.50
2017-12-21T02:58:07.720Z,65.70
2017-12-21T03:00:35.996Z,65.60
2017-12-21T03:03:04.572Z,65.60
2017-12-21T03:05:32.849Z,65.60
2017-12-21T03:08:01.986Z,65.90
2017-12-21T03:10:30.348Z,65.90
2017-12-21T03:12:59.402Z,65.70
2017-12-21T03:15:28.225Z,65.80
2017-12-21T03:17:57.264Z,65.80
2017-12-21T03:20:25.556Z,65.80
2017-12-21T03:22:53.825Z,65.80
2017-12-21T03:25:22.403Z,66.00
2017-12-21T03:27:50.671Z,66.00
2017-12-21T03:30:18.925Z,66.20
2017-12-21T03:32:47.262Z,66.30
2017-12-21T03:35:16.295Z,66.50
2017-12-21T03:37:44.653Z,66.50
2017-12-21T03:40:12.938Z,66.70
2017-12-21T03:42:41.749Z,66.80
2017-12-21T03:45:10.016Z,67.10
2017-12-21T03:47:38.302Z,67.00
2017-12-21T03:50:06.569Z,67.30
2017-12-21T03:52:34.840Z,67.50
2017-12-21T03:55:03.141Z,67.70
2017-12-21T03:57:31.433Z,67.70
2017-12-21T03:59:59.717Z,67.90
2017-12-21T04:02:28.011Z,68.00
2017-12-21T04:04:56.577Z,68.20
2017-12-21T04:07:24.829Z,68.30
2017-12-21T04:09:53.089Z,68.40
2017-12-21T04:12:21.413Z,68.50
2017-12-21T04:14:49.660Z,68.50
2017-12-21T04:17:17.946Z,68.60
2017-12-21T04:19:46.214Z,68.60
2017-12-21T04:22:14.492Z,68.80
2017-12-21T04:24:42.744Z,68.80
2017-12-21T04:27:11.396Z,68.80
2017-12-21T04:29:39.646Z,68.90
2017-12-21T04:32:08.188Z,69.00
2017-12-21T04:34:36.469Z,69.00
2017-12-21T04:37:04.790Z,69.00
2017-12-21T04:39:33.062Z,69.00
2017-12-21T04:42:01.324Z,69.00
2017-12-21T04:44:29.894Z,69.10
2017-12-21T04:46:58.142Z,69.10
2017-12-21T04:49:26.399Z,69.90
2017-12-21T04:51:54.677Z,69.20
2017-12-21T04:54:22.943Z,69.40
2017-12-21T04:56:51.232Z,69.40
2017-12-21T04:59:19.501Z,69.40
2017-12-21T05:01:47.800Z,69.40
2017-12-21T05:04:16.062Z,69.50
2017-12-21T05:06:44.632Z,69.60
2017-12-21T05:09:12.958Z,69.70
2017-12-21T05:11:44.778Z,69.60
2017-12-21T05:14:13.064Z,69.70
2017-12-21T05:16:41.329Z,69.80
2017-12-21T05:19:09.727Z,69.90
2017-12-21T05:21:38.020Z,70.00
2017-12-21T05:24:06.364Z,70.10
2017-12-21T05:26:34.642Z,70.20
2017-12-21T05:29:02.919Z,70.30
2017-12-21T05:31:31.195Z,70.40
2017-12-21T05:33:59.780Z,70.50
2017-12-21T05:36:28.070Z,70.50
2017-12-21T05:38:57.360Z,70.50
2017-12-21T05:41:25.625Z,70.60
2017-12-21T05:43:53.910Z,70.60
2017-12-21T05:46:22.515Z,70.80
2017-12-21T05:48:50.760Z,70.50
2017-12-21T05:51:19.044Z,70.60
2017-12-21T05:53:47.321Z,70.50
2017-12-21T05:56:16.036Z,70.50
2017-12-21T05:58:44.316Z,70.50
2017-12-21T06:01:12.702Z,70.70
2017-12-21T06:03:41.031Z,70.70
2017-12-21T06:06:09.279Z,70.70
2017-12-21T06:08:38.110Z,70.80
2017-12-21T06:11:06.411Z,71.10
2017-12-21T06:13:34.688Z,71.00
2017-12-21T06:16:03.004Z,70.90
2017-12-21T06:18:31.263Z,71.00
2017-12-21T06:20:59.574Z,70.90
2017-12-21T06:23:27.852Z,70.30
2017-12-21T06:25:57.026Z,70.90
2017-12-21T06:28:25.345Z,70.90
2017-12-21T06:30:53.884Z,71.30
2017-12-21T06:33:22.147Z,70.90
2017-12-21T06:35:50.410Z,71.00
2017-12-21T06:38:18.699Z,71.10
2017-12-21T06:40:46.970Z,71.30
2017-12-21T06:43:15.258Z,71.20
2017-12-21T06:45:43.518Z,71.40
2017-12-21T06:48:11.820Z,71.50
2017-12-21T06:50:40.086Z,71.40
2017-12-21T06:53:08.643Z,71.30
2017-12-21T06:55:36.909Z,71.70
2017-12-21T06:58:05.167Z,71.90
2017-12-21T07:00:33.456Z,71.90
2017-12-21T07:03:01.784Z,72.10
2017-12-21T07:05:30.090Z,72.20
2017-12-21T07:07:58.336Z,72.40
2017-12-21T07:10:26.885Z,72.50
2017-12-21T07:12:55.158Z,72.50
2017-12-21T07:15:23.421Z,72.60
2017-12-21T07:17:51.709Z,72.60
2017-12-21T07:20:20.748Z,72.60
2017-12-21T07:22:49.044Z,72.60
2017-12-21T07:25:17.320Z,72.50
2017-12-21T07:27:45.605Z,72.70
2017-12-21T07:30:14.638Z,72.80
2017-12-21T07:32:43.208Z,72.80
2017-12-21T07:35:12.244Z,72.80
2017-12-21T07:37:40.512Z,72.80
2017-12-21T07:40:08.810Z,72.90
2017-12-21T07:42:37.073Z,72.80
2017-12-21T07:45:05.338Z,72.90
2017-12-21T07:47:33.596Z,73.00
2017-12-21T07:50:01.933Z,73.20
2017-12-21T07:52:30.237Z,73.30
2017-12-21T07:54:59.555Z,73.50
2017-12-21T07:57:27.825Z,73.50
2017-12-21T07:59:56.102Z,74.20
2017-12-21T08:02:24.418Z,73.40
2017-12-21T08:04:52.692Z,73.60
2017-12-21T08:07:21.250Z,73.70
2017-12-21T08:09:49.510Z,74.00
2017-12-21T08:12:18.543Z,74.80
2017-12-21T08:14:46.840Z,74.00
2017-12-21T08:17:15.085Z,74.10
2017-12-21T08:19:43.380Z,74.10
2017-12-21T08:22:11.669Z,74.20
2017-12-21T08:24:39.981Z,74.30
2017-12-21T08:27:08.222Z,74.30
2017-12-21T08:29:36.801Z,74.30
2017-12-21T08:32:05.069Z,74.40
2017-12-21T08:34:33.351Z,74.40
2017-12-21T08:37:01.634Z,74.30
2017-12-21T08:39:29.901Z,74.40
2017-12-21T08:41:58.199Z,74.40
2017-12-21T08:44:26.512Z,74.30
2017-12-21T08:46:54.820Z,74.40
2017-12-21T08:49:23.265Z,74.50
2017-12-21T08:51:51.959Z,74.50
2017-12-21T08:54:20.261Z,74.50
2017-12-21T08:56:48.546Z,74.40
2017-12-21T08:59:16.814Z,74.50
2017-12-21T09:01:45.087Z,74.60
2017-12-21T09:04:13.392Z,74.50
2017-12-21T09:06:41.693Z,74.50
2017-12-21T09:09:09.961Z,74.40
2017-12-21T09:11:38.268Z,74.60
2017-12-21T09:14:06.540Z,74.60
2017-12-21T09:16:34.841Z,74.90
2017-12-21T09:19:03.373Z,74.60
2017-12-21T09:21:31.700Z,74.60
2017-12-21T09:24:00.717Z,75.00
2017-12-21T09:26:29.014Z,75.50
2017-12-21T09:28:57.292Z,74.60
2017-12-21T09:31:25.587Z,74.70
2017-12-21T09:33:53.852Z,74.80
2017-12-21T09:36:22.133Z,74.90
2017-12-21T09:38:50.445Z,75.00
2017-12-21T09:41:18.722Z,75.00
2017-12-21T09:43:47.045Z,75.00
2017-12-21T09:46:16.207Z,75.20
2017-12-21T09:48:44.537Z,75.00
2017-12-21T09:51:12.844Z,75.20
2017-12-21T09:53:41.135Z,75.90
2017-12-21T09:56:09.899Z,75.90
2017-12-21T09:58:38.202Z,75.30
2017-12-21T10:01:06.478Z,75.70
2017-12-21T10:03:34.760Z,75.70
2017-12-21T10:06:03.029Z,75.70
2017-12-21T10:08:31.339Z,75.70
2017-12-21T10:11:00.373Z,75.60
2017-12-21T10:13:28.701Z,75.50
2017-12-21T10:15:56.967Z,75.60
2017-12-21T10:18:25.293Z,75.70
2017-12-21T10:20:53.518Z,75.60
2017-12-21T10:23:21.828Z,75.60
2017-12-21T10:25:50.082Z,76.50
2017-12-21T10:28:19.125Z,75.60
2017-12-21T10:30:47.409Z,75.60
2017-12-21T10:33:15.681Z,75.70
2017-12-21T10:35:43.974Z,75.90
2017-12-21T10:38:12.359Z,76.10
2017-12-21T10:40:40.652Z,76.10
2017-12-21T10:43:08.934Z,76.30
2017-12-21T10:45:37.297Z,76.40
2017-12-21T10:48:05.588Z,76.50
2017-12-21T10:50:33.918Z,76.80
2017-12-21T10:53:02.213Z,76.70
2017-12-21T10:58:28.255Z,76.90
2017-12-21T11:00:56.584Z,76.90
2017-12-21T11:03:25.776Z,77.00
2017-12-21T11:05:54.033Z,76.90
2017-12-21T11:08:22.317Z,77.10
2017-12-21T11:10:50.601Z,77.30
2017-12-21T11:13:18.888Z,77.30
2017-12-21T11:15:47.398Z,77.50
2017-12-21T11:18:18.554Z,77.60
2017-12-21T11:20:47.571Z,77.90
2017-12-21T11:23:16.176Z,78.00
2017-12-21T11:25:45.281Z,77.90
2017-12-21T11:28:13.623Z,77.90
2017-12-21T11:30:41.913Z,78.00
2017-12-21T11:33:10.228Z,78.10
2017-12-21T11:35:39.381Z,78.20
2017-12-21T11:38:09.164Z,78.20
2017-12-21T11:40:38.284Z,78.30
2017-12-21T11:43:06.651Z,78.40
2017-12-21T11:45:34.929Z,78.50
2017-12-21T11:48:03.220Z,78.40
2017-12-21T11:50:32.288Z,78.40
2017-12-21T11:53:02.448Z,78.60
2017-12-21T11:55:30.715Z,78.60
2017-12-21T11:58:02.240Z,78.60
2017-12-21T12:00:31.257Z,78.50
2017-12-21T12:02:59.584Z,78.50
2017-12-21T12:05:28.343Z,78.60
2017-12-21T12:07:57.711Z,78.50
2017-12-21T12:10:26.833Z,78.50
2017-12-21T12:12:55.105Z,78.60
2017-12-21T12:15:24.681Z,78.50
2017-12-21T12:17:54.628Z,78.60
2017-12-21T12:20:22.908Z,78.60
2017-12-21T12:22:51.220Z,78.80
2017-12-21T12:25:19.606Z,78.80
2017-12-21T12:27:48.140Z,78.80
2017-12-21T12:30:16.424Z,79.00
2017-12-21T12:32:45.622Z,78.80
2017-12-21T12:35:14.042Z,78.70
2017-12-21T12:37:42.383Z,78.80
2017-12-21T12:40:10.661Z,79.00
2017-12-21T12:42:39.120Z,78.80
2017-12-21T12:45:08.154Z,79.10
2017-12-21T12:47:36.549Z,79.00
2017-12-21T12:50:04.815Z,79.00
2017-12-21T12:52:33.124Z,79.20
2017-12-21T12:55:01.375Z,79.30
2017-12-21T12:57:29.641Z,79.40
2017-12-21T12:59:57.932Z,79.40
2017-12-21T13:02:26.523Z,79.80
2017-12-21T13:04:55.096Z,79.70
2017-12-21T13:07:23.401Z,79.80
2017-12-21T13:09:51.696Z,79.90
2017-12-21T13:12:19.967Z,79.90
2017-12-21T13:14:48.284Z,80.00
2017-12-21T13:17:16.680Z,80.00
2017-12-21T13:19:44.948Z,80.00
2017-12-21T13:22:13.251Z,80.00
2017-12-21T13:24:41.596Z,80.00
2017-12-21T13:27:09.879Z,80.00
2017-12-21T13:29:38.258Z,80.10
2017-12-21T13:32:06.569Z,80.10
2017-12-21T13:34:34.823Z,80.20
2017-12-21T13:37:03.474Z,80.10
2017-12-21T13:39:31.732Z,80.00
2017-12-21T13:42:00.042Z,80.00
2017-12-21T13:44:28.367Z,80.10
2017-12-21T13:46:57.237Z,80.10
2017-12-21T13:49:25.523Z,80.10
2017-12-21T13:51:53.912Z,80.10
2017-12-21T13:54:22.199Z,80.20
2017-12-21T13:56:50.455Z,80.30
2017-12-21T13:59:18.729Z,80.30
2017-12-21T14:01:47.029Z,80.30
2017-12-21T14:04:15.346Z,80.40
2017-12-21T14:06:43.691Z,80.50
2017-12-21T14:09:11.941Z,80.30
2017-12-21T14:11:40.277Z,80.20
2017-12-21T14:14:08.562Z,80.20
2017-12-21T14:16:37.608Z,80.10
2017-12-21T14:19:05.891Z,80.20
2017-12-21T14:21:34.187Z,80.10
2017-12-21T14:24:03.408Z,80.20
2017-12-21T14:26:32.436Z,80.00
2017-12-21T14:29:00.739Z,80.10
2017-12-21T14:31:29.253Z,80.00
2017-12-21T14:33:57.848Z,80.10
2017-12-21T14:36:31.736Z,80.10
2017-12-21T14:39:03.477Z,80.60
2017-12-21T14:41:32.323Z,79.70
2017-12-21T14:44:04.050Z,79.80
2017-12-21T14:46:32.678Z,79.80
2017-12-21T14:49:00.960Z,80.30
2017-12-21T14:51:29.768Z,79.80
2017-12-21T14:53:58.070Z,80.00
2017-12-21T14:56:26.363Z,80.00
2017-12-21T14:58:54.677Z,79.80
2017-12-21T15:01:22.957Z,79.90
2017-12-21T15:03:51.248Z,79.50
2017-12-21T15:06:19.544Z,79.40
2017-12-21T15:08:47.860Z,79.40
2017-12-21T15:11:17.573Z,79.50
2017-12-21T15:13:45.873Z,79.50
2017-12-21T15:16:14.282Z,79.50
2017-12-21T15:18:42.799Z,79.60
2017-12-21T15:21:11.104Z,79.50
2017-12-21T15:23:40.155Z,79.40
2017-12-21T15:26:08.517Z,79.40
2017-12-21T15:28:36.878Z,79.40
2017-12-21T15:31:05.985Z,79.50
2017-12-21T15:33:34.307Z,79.40
2017-12-21T15:36:02.575Z,79.20
2017-12-21T15:38:30.939Z,79.20
2017-12-21T15:40:59.218Z,79.20
2017-12-21T15:43:27.586Z,79.00
2017-12-21T15:45:56.058Z,79.00
2017-12-21T15:48:24.392Z,78.80
2017-12-21T15:50:52.673Z,78.80
2017-12-21T15:53:20.985Z,78.80
2017-12-21T15:55:49.268Z,78.70
2017-12-21T15:58:18.159Z,78.70
2017-12-21T16:00:46.467Z,78.70
2017-12-21T16:03:15.515Z,78.80
2017-12-21T16:05:43.861Z,78.80
2017-12-21T16:08:12.195Z,78.70
2017-12-21T16:10:40.513Z,79.40
2017-12-21T16:13:08.858Z,78.70
2017-12-21T16:15:37.188Z,78.60
2017-12-21T16:18:05.487Z,78.60
2017-12-21T16:20:34.506Z,78.30
2017-12-21T16:23:03.129Z,78.30
2017-12-21T16:25:32.354Z,78.20
2017-12-21T16:28:01.535Z,78.30
2017-12-21T16:30:30.752Z,78.40
2017-12-21T16:32:59.057Z,78.40
2017-12-21T16:35:27.714Z,78.30
2017-12-21T16:37:56.022Z,78.30
2017-12-21T16:40:24.318Z,78.20
2017-12-21T16:42:52.621Z,78.30
2017-12-21T16:45:20.960Z,78.30
2017-12-21T16:47:49.362Z,78.40
2017-12-21T16:50:17.651Z,78.30
2017-12-21T16:52:45.930Z,78.20
2017-12-21T16:55:14.242Z,78.20
2017-12-21T16:57:42.586Z,78.10
2017-12-21T17:00:10.865Z,78.20
2017-12-21T17:02:40.160Z,78.10
2017-12-21T17:07:43.070Z,78.00
2017-12-21T17:10:11.526Z,77.80
2017-12-21T17:12:39.832Z,78.00
2017-12-21T17:15:08.129Z,77.90
2017-12-21T17:17:36.538Z,77.80
2017-12-21T17:20:05.607Z,77.70
2017-12-21T17:22:33.880Z,77.80
2017-12-21T17:25:03.082Z,77.80
2017-12-21T17:27:31.354Z,78.00
2017-12-21T17:29:59.684Z,77.80
2017-12-21T17:32:28.106Z,77.80
2017-12-21T17:34:56.438Z,77.70
2017-12-21T17:37:24.734Z,77.70
2017-12-21T17:39:58.517Z,77.70
2017-12-21T17:42:26.823Z,77.70
2017-12-21T17:44:55.124Z,77.80
2017-12-21T17:47:23.446Z,77.70
2017-12-21T17:49:52.507Z,77.80
2017-12-21T17:52:20.827Z,77.80
2017-12-21T17:54:49.141Z,77.70
2017-12-21T17:57:17.472Z,77.60
2017-12-21T17:59:45.835Z,77.50
2017-12-21T18:02:15.186Z,77.40
2017-12-21T18:04:43.512Z,77.60
2017-12-21T18:07:11.873Z,77.40
2017-12-21T18:09:40.188Z,76.90
2017-12-21T18:12:08.489Z,76.90
2017-12-21T18:14:36.884Z,76.80
2017-12-21T18:17:05.202Z,76.90
2017-12-21T18:19:33.899Z,76.80
2017-12-21T18:22:02.980Z,77.00
2017-12-21T18:24:31.685Z,77.00
2017-12-21T18:27:00.008Z,77.10
2017-12-21T18:29:28.484Z,77.10
2017-12-21T18:31:57.021Z,77.20
2017-12-21T18:34:26.123Z,77.10
2017-12-21T18:36:54.942Z,77.10
2017-12-21T18:39:23.181Z,76.90
2017-12-21T18:41:51.453Z,76.70
2017-12-21T18:44:19.774Z,76.90
2017-12-21T18:46:48.062Z,76.70
2017-12-21T18:49:16.406Z,76.70
2017-12-21T18:51:44.741Z,76.80
2017-12-21T18:54:31.881Z,76.80
2017-12-21T18:57:00.459Z,76.80
2017-12-21T18:59:29.137Z,76.70
2017-12-21T19:01:57.438Z,76.80
2017-12-21T19:04:25.723Z,76.80
2017-12-21T19:06:54.077Z,76.70
2017-12-21T19:09:22.418Z,76.50
2017-12-21T19:11:51.019Z,76.50
2017-12-21T19:14:19.314Z,76.50
2017-12-21T19:16:47.592Z,76.60
2017-12-21T19:19:15.918Z,76.60
2017-12-21T19:21:44.970Z,76.60
2017-12-21T19:24:13.300Z,76.60
2017-12-21T19:26:42.358Z,76.50
2017-12-21T19:29:11.439Z,76.60
2017-12-21T19:31:39.735Z,76.40
2017-12-21T19:34:08.599Z,76.30
2017-12-21T19:36:38.112Z,75.90
2017-12-21T19:39:06.403Z,75.90
2017-12-21T19:41:34.712Z,75.70
2017-12-21T19:44:03.768Z,75.60
2017-12-21T19:46:32.238Z,75.60
2017-12-21T19:49:00.519Z,75.60
2017-12-21T19:51:28.842Z,75.50
2017-12-21T19:53:57.356Z,75.60
2017-12-21T19:56:25.727Z,75.50
2017-12-21T19:58:54.827Z,75.20
2017-12-21T20:01:23.131Z,75.30
2017-12-21T20:03:51.454Z,75.10
2017-12-21T20:06:20.530Z,75.30
2017-12-21T20:08:48.844Z,75.30
2017-12-21T20:11:17.902Z,75.40
2017-12-21T20:13:46.194Z,75.40
2017-12-21T20:16:15.499Z,75.30
2017-12-21T20:18:43.844Z,75.20
2017-12-21T20:21:15.257Z,75.40
2017-12-21T20:23:43.597Z,75.30
2017-12-21T20:26:11.946Z,75.20
2017-12-21T20:28:40.265Z,75.20
2017-12-21T20:31:08.617Z,75.10
2017-12-21T20:33:36.897Z,75.00
2017-12-21T20:36:05.231Z,75.00
2017-12-21T20:38:33.805Z,75.10
2017-12-21T20:41:02.263Z,75.00
2017-12-21T20:43:30.675Z,75.00
2017-12-21T20:45:59.750Z,75.00
2017-12-21T20:48:28.384Z,75.00
2017-12-21T20:51:00.406Z,75.10
2017-12-21T20:53:29.062Z,75.00
2017-12-21T20:55:57.332Z,74.90
2017-12-21T20:58:25.609Z,75.00
2017-12-21T21:00:53.937Z,74.90
2017-12-21T21:03:26.738Z,75.00
2017-12-21T21:05:55.789Z,74.60
2017-12-21T21:08:24.067Z,74.60
2017-12-21T21:10:52.407Z,74.50
2017-12-21T21:13:20.708Z,74.60
2017-12-21T21:15:49.162Z,74.60
2017-12-21T21:18:17.517Z,74.50
2017-12-21T21:20:46.566Z,74.20
2017-12-21T21:23:14.883Z,74.30
2017-12-21T21:25:43.940Z,74.30
2017-12-21T21:28:12.292Z,74.40
2017-12-21T21:30:40.596Z,74.30
2017-12-21T21:33:08.880Z,74.20
2017-12-21T21:35:37.198Z,74.20
2017-12-21T21:38:05.460Z,74.00
2017-12-21T21:40:34.546Z,75.10
2017-12-21T21:43:02.841Z,74.30
2017-12-21T21:45:31.923Z,74.30
2017-12-21T21:48:00.236Z,74.30
2017-12-21T21:50:29.338Z,73.90
2017-12-21T21:52:57.586Z,73.90
2017-12-21T21:55:25.865Z,73.70
2017-12-21T21:57:54.955Z,73.50
2017-12-21T22:00:23.253Z,73.50
2017-12-21T22:02:51.561Z,73.60
2017-12-21T22:05:19.872Z,73.70
2017-12-21T22:07:48.184Z,73.50
2017-12-21T22:10:17.229Z,73.50
2017-12-21T22:12:45.534Z,73.40
2017-12-21T22:15:13.858Z,73.60
2017-12-21T22:17:42.147Z,73.40
2017-12-21T22:20:10.457Z,73.40
2017-12-21T22:22:38.726Z,73.30
2017-12-21T22:25:07.051Z,73.10
2017-12-21T22:27:36.109Z,73.10
2017-12-21T22:30:04.380Z,73.10
2017-12-21T22:32:32.712Z,73.00
2017-12-21T22:35:01.759Z,72.90
2017-12-21T22:37:30.131Z,72.90
2017-12-21T22:39:58.413Z,73.00
2017-12-21T22:42:26.718Z,72.90
2017-12-21T22:44:55.777Z,73.00
2017-12-21T22:47:24.063Z,73.00
2017-12-21T22:49:52.348Z,72.90
2017-12-21T22:52:20.665Z,72.90
2017-12-21T22:54:48.955Z,72.90
2017-12-21T22:57:17.221Z,72.80
2017-12-21T22:59:46.296Z,72.90
2017-12-21T23:02:14.572Z,72.90
2017-12-21T23:04:42.878Z,72.80
2017-12-21T23:07:11.663Z,72.70
2017-12-21T23:09:41.054Z,72.50
2017-12-21T23:12:09.327Z,72.50
2017-12-21T23:14:37.594Z,72.60
2017-12-21T23:17:05.894Z,72.50
2017-12-21T23:19:34.961Z,72.50
2017-12-21T23:22:04.194Z,72.50
2017-12-21T23:24:32.474Z,72.50
2017-12-21T23:27:00.872Z,73.50
2017-12-21T23:29:29.150Z,72.80
2017-12-21T23:31:57.415Z,72.70
2017-12-21T23:34:25.719Z,72.50
2017-12-21T23:36:53.981Z,72.50
2017-12-21T23:39:22.328Z,72.50
2017-12-21T23:41:51.366Z,72.50
2017-12-21T23:44:19.958Z,72.50
2017-12-21T23:46:48.252Z,72.50
2017-12-21T23:49:16.563Z,72.50
2017-12-21T23:51:45.662Z,72.40
2017-12-21T23:54:13.938Z,72.40
2017-12-21T23:56:43.012Z,72.30
2017-12-21T23:59:11.300Z,72.20
